Terminal Aerodrome Forecast
Issued by NWS Jackson, KY

Home | Current Version | Previous Version | Text Only | Print | Product List | Glossary On
Versions: 1 2 3 4 5 6 7 8 9 10 11 12 13 14 15 16 17 18 19 20 21 22 23 24
000
FTUS43 KJKL 261722
TAFJKL
TAF
KJKL 261722Z 2618/2718 VRB05KT P6SM SKC
     FM270500 16006KT P6SM FEW250
     FM270900 18006KT P6SM FEW250 WS020/20035KT
     FM271000 18007KT P6SM FEW200
     FM271200 19008KT P6SM SCT015 BKN025
     FM271400 18010KT 6SM -SHRA VCTS FEW015CB BKN040=

USA.gov is the U.S. government's official web portal to all federal, state and local government web resources and services.